createdAt,value
2022-07-30T00:00:44.703Z,1021.5
2022-07-30T00:06:17.211Z,1021.7
2022-07-30T00:12:01.009Z,1021.6
2022-07-30T00:17:32.323Z,1021.7
2022-07-30T00:23:01.656Z,1021.6
2022-07-30T00:28:31.728Z,1021.6
2022-07-30T00:34:15.018Z,1021.5
2022-07-30T00:39:40.406Z,1021.6
2022-07-30T00:45:19.856Z,1021.4
2022-07-30T00:50:59.327Z,1021.3
2022-07-30T00:56:47.730Z,1021.5
2022-07-30T01:02:19.518Z,1021.5
2022-07-30T01:07:41.152Z,1021.7
2022-07-30T01:13:12.052Z,1021.7
2022-07-30T01:18:41.828Z,1021.6
2022-07-30T01:24:44.840Z,1021.5
2022-07-30T01:30:06.480Z,1021.5
2022-07-30T01:35:31.242Z,1021.4
2022-07-30T01:41:27.938Z,1021.4
2022-07-30T01:46:42.878Z,1021.2
2022-07-30T01:52:37.328Z,1021.1
2022-07-30T01:57:50.780Z,1021.2
2022-07-30T02:03:39.937Z,1021.3
2022-07-30T02:09:20.248Z,1021.4
2022-07-30T02:14:53.154Z,1021.2
2022-07-30T02:20:31.770Z,1021.3
2022-07-30T02:25:45.087Z,1021.4
2022-07-30T02:31:19.430Z,1021.3
2022-07-30T02:37:14.212Z,1021.2
2022-07-30T02:42:49.681Z,1021.3
2022-07-30T02:48:04.863Z,1021.3
2022-07-30T02:53:53.277Z,1021.3
2022-07-30T02:59:31.880Z,1021.2
2022-07-30T03:04:58.728Z,1021.3
2022-07-30T03:10:40.024Z,1021.3
2022-07-30T03:16:17.123Z,1021.3
2022-07-30T03:21:39.107Z,1021.3
2022-07-30T03:27:19.290Z,1021.4
2022-07-30T03:33:00.956Z,1021.5
2022-07-30T03:38:26.621Z,1021.6
2022-07-30T03:44:04.456Z,1021.6
2022-07-30T03:49:21.335Z,1021.6
2022-07-30T03:55:12.911Z,1021.7
2022-07-30T04:00:42.882Z,1021.7
2022-07-30T04:06:10.567Z,1021.7
2022-07-30T04:12:01.946Z,1021.7
2022-07-30T04:17:36.533Z,1021.8
2022-07-30T04:22:59.061Z,1021.7
2022-07-30T04:28:38.177Z,1021.8
2022-07-30T04:34:22.085Z,1021.9
2022-07-30T04:39:58.210Z,1021.9
2022-07-30T04:45:14.838Z,1021.7
2022-07-30T04:50:44.682Z,1021.6
2022-07-30T04:56:19.278Z,1021.4
2022-07-30T05:01:56.548Z,1021.5
2022-07-30T05:07:35.665Z,1021.5
2022-07-30T05:13:01.319Z,1021.9
2022-07-30T05:18:57.693Z,1022.1
2022-07-30T05:24:10.402Z,1022.2
2022-07-30T05:29:57.229Z,1022.1
2022-07-30T05:35:20.888Z,1022.1
2022-07-30T05:41:18.265Z,1021.9
2022-07-30T05:46:37.414Z,1021.8
2022-07-30T05:52:04.997Z,1021.6
2022-07-30T05:57:40.331Z,1021.7
2022-07-30T06:03:24.813Z,1021.5
2022-07-30T06:09:03.397Z,1021.4
2022-07-30T06:14:51.847Z,1021.4
2022-07-30T06:20:10.518Z,1021.6
2022-07-30T06:25:58.525Z,1021.8
2022-07-30T06:31:40.575Z,1021.7
2022-07-30T06:37:01.508Z,1021.6
2022-07-30T06:42:43.855Z,1021.5
2022-07-30T06:48:21.802Z,1021.4
2022-07-30T06:53:50.237Z,1021.3
2022-07-30T06:59:55.865Z,1021.5
2022-07-30T07:04:59.933Z,1021.4
2022-07-30T07:10:44.021Z,1021.6
2022-07-30T07:16:13.091Z,1021.5
2022-07-30T07:21:56.959Z,1021.5
2022-07-30T07:27:38.452Z,1021.1
2022-07-30T07:33:02.557Z,1021.1
2022-07-30T07:38:42.680Z,1020.9
2022-07-30T07:44:30.614Z,1020.6
2022-07-30T07:49:50.350Z,1020.4
2022-07-30T07:55:33.924Z,1020.2
2022-07-30T08:01:22.966Z,1020.5
2022-07-30T08:06:58.142Z,1020.3
2022-07-30T08:12:19.785Z,1020.3
2022-07-30T08:18:07.194Z,1020.5
2022-07-30T08:23:47.934Z,1020.4
2022-07-30T08:35:10.267Z,1020.3
2022-07-30T08:40:25.655Z,1020
2022-07-30T08:46:09.607Z,1020.1
2022-07-30T08:52:05.139Z,1019.9
2022-07-30T08:57:39.276Z,1019.8
2022-07-30T09:03:01.525Z,1019.9
2022-07-30T09:08:44.661Z,1019.8
2022-07-30T09:14:15.757Z,1019.9
2022-07-30T09:19:59.470Z,1019.7
2022-07-30T09:25:40.400Z,1019.8
2022-07-30T09:31:09.350Z,1019.8
2022-07-30T09:36:45.470Z,1019.7
2022-07-30T09:42:46.030Z,1019.7
2022-07-30T09:48:11.738Z,1019.6
2022-07-30T09:54:09.471Z,1019.4
2022-07-30T09:59:34.933Z,1019.4
2022-07-30T10:05:15.002Z,1019.7
2022-07-30T10:10:46.990Z,1019.8
2022-07-30T10:16:18.121Z,1019.6
2022-07-30T10:22:03.728Z,1019.4
2022-07-30T10:28:01.049Z,1019.4
2022-07-30T10:33:40.333Z,1019.5
2022-07-30T10:39:09.806Z,1019.6
2022-07-30T10:44:42.101Z,1019.5
2022-07-30T10:50:28.732Z,1019.5
2022-07-30T10:56:00.518Z,1019.5
2022-07-30T11:01:26.071Z,1019.6
2022-07-30T11:07:01.024Z,1019.5
2022-07-30T11:13:01.599Z,1019.5
2022-07-30T11:18:20.649Z,1019.3
2022-07-30T11:24:02.287Z,1019.1
2022-07-30T11:29:59.619Z,1019
2022-07-30T11:35:16.014Z,1019
2022-07-30T11:40:52.376Z,1019.2
2022-07-30T11:46:39.671Z,1019
2022-07-30T11:52:35.525Z,1019.2
2022-07-30T11:57:53.728Z,1019.1
2022-07-30T12:03:50.817Z,1019.2
2022-07-30T12:09:10.874Z,1019.1
2022-07-30T12:14:45.904Z,1019.2
2022-07-30T12:20:34.397Z,1019.2
2022-07-30T12:26:21.895Z,1019
2022-07-30T12:31:50.504Z,1019
2022-07-30T12:37:42.449Z,1018.9
2022-07-30T12:43:18.911Z,1018.9
2022-07-30T12:48:45.233Z,1019
2022-07-30T12:54:10.947Z,1019.1
2022-07-30T13:00:07.139Z,1019
2022-07-30T13:05:49.139Z,1018.7
2022-07-30T13:11:07.534Z,1018.9
2022-07-30T13:16:51.108Z,1018.9
2022-07-30T13:22:32.044Z,1018.8
2022-07-30T13:28:20.195Z,1018.9
2022-07-30T13:33:38.788Z,1018.6
2022-07-30T13:39:37.755Z,1018.7
2022-07-30T13:45:12.678Z,1018.7
2022-07-30T13:50:32.594Z,1018.8
2022-07-30T13:56:13.657Z,1018.7
2022-07-30T14:01:59.094Z,1018.8
2022-07-30T14:07:34.800Z,1018.8
2022-07-30T14:13:02.638Z,1018.6
2022-07-30T14:18:59.838Z,1018.5
2022-07-30T14:24:39.597Z,1018.6
2022-07-30T14:30:02.699Z,1018.5
2022-07-30T14:35:28.201Z,1018.6
2022-07-30T14:41:17.813Z,1018.6
2022-07-30T14:46:56.659Z,1018.4
2022-07-30T14:52:19.630Z,1018.3
2022-07-30T14:58:10.312Z,1018.2
2022-07-30T15:03:43.717Z,1018.2
2022-07-30T15:09:27.775Z,1018.3
2022-07-30T15:15:15.113Z,1018.3
2022-07-30T15:20:35.712Z,1018.3
2022-07-30T15:26:21.028Z,1018.3
2022-07-30T15:32:10.059Z,1018
2022-07-30T15:37:36.198Z,1018
2022-07-30T15:43:11.047Z,1017.9
2022-07-30T15:48:47.889Z,1017.8
2022-07-30T15:54:31.782Z,1017.7
2022-07-30T16:00:12.202Z,1018
2022-07-30T16:06:02.258Z,1017.9
2022-07-30T16:11:18.145Z,1018
2022-07-30T16:16:52.172Z,1018
2022-07-30T16:22:41.272Z,1017.9
2022-07-30T16:28:11.666Z,1017.8
2022-07-30T16:33:47.724Z,1017.9
2022-07-30T16:39:27.102Z,1018
2022-07-30T16:45:18.145Z,1018
2022-07-30T16:50:49.478Z,1018
2022-07-30T16:56:18.929Z,1018.2
2022-07-30T17:02:01.701Z,1018.3
2022-07-30T17:07:38.053Z,1018.2
2022-07-30T17:13:28.387Z,1018.2
2022-07-30T17:18:41.284Z,1018.3
2022-07-30T17:24:44.070Z,1018.4
2022-07-30T17:30:16.892Z,1018.4
2022-07-30T17:35:53.178Z,1018.2
2022-07-30T17:41:28.126Z,1017.9
2022-07-30T17:46:52.748Z,1017.8
2022-07-30T17:52:32.236Z,1018.1
2022-07-30T17:58:09.735Z,1018.2
2022-07-30T18:03:45.229Z,1018.2
2022-07-30T18:09:38.092Z,1018.3
2022-07-30T18:15:04.243Z,1018.3
2022-07-30T18:20:53.771Z,1018.4
2022-07-30T18:26:03.343Z,1018.7
2022-07-30T18:31:50.239Z,1018.8
2022-07-30T18:37:21.767Z,1018.8
2022-07-30T18:43:21.314Z,1018.7
2022-07-30T18:48:53.861Z,1018.8
2022-07-30T18:54:05.104Z,1019.1
2022-07-30T18:59:40.963Z,1019
2022-07-30T19:05:34.460Z,1019.2
2022-07-30T19:11:15.634Z,1019.3
2022-07-30T19:16:46.840Z,1019.4
2022-07-30T19:22:29.495Z,1019.2
2022-07-30T19:28:07.803Z,1019.3
2022-07-30T19:33:16.509Z,1019.4
2022-07-30T19:38:51.985Z,1019.5
2022-07-30T19:44:28.304Z,1020
2022-07-30T19:50:08.188Z,1019.8
2022-07-30T19:55:56.068Z,1019.7
2022-07-30T20:01:42.424Z,1019.7
2022-07-30T20:06:55.946Z,1019.8
2022-07-30T20:12:27.692Z,1019.8
2022-07-30T20:18:09.238Z,1020.1
2022-07-30T20:23:52.517Z,1020.1
2022-07-30T20:29:19.856Z,1020.2
2022-07-30T20:35:05.148Z,1020.1
2022-07-30T20:40:42.385Z,1020.1
2022-07-30T20:46:06.742Z,1020.2
2022-07-30T20:51:40.024Z,1020.1
2022-07-30T20:57:15.411Z,1020.1
2022-07-30T21:02:52.764Z,1020.3
2022-07-30T21:08:26.537Z,1020.4
2022-07-30T21:13:58.864Z,1020.3
2022-07-30T21:19:40.356Z,1020.6
2022-07-30T21:25:15.197Z,1020.6
2022-07-30T21:30:51.308Z,1020.3
2022-07-30T21:36:31.924Z,1020.3
2022-07-30T21:42:26.010Z,1020.3
2022-07-30T21:47:39.957Z,1020.6
2022-07-30T21:53:16.199Z,1020.5
2022-07-30T21:58:52.484Z,1020.5
2022-07-30T22:04:21.218Z,1020.6
2022-07-30T22:10:22.635Z,1020.6
2022-07-30T22:15:48.093Z,1020.5
2022-07-30T22:21:29.979Z,1020.4
2022-07-30T22:27:10.828Z,1020.8
2022-07-30T22:32:30.701Z,1021.3
2022-07-30T22:38:15.869Z,1021.5
2022-07-30T22:43:35.631Z,1021.4
2022-07-30T22:49:46.249Z,1021.4
2022-07-30T22:54:41.728Z,1021.4
2022-07-30T23:00:27.139Z,1021.2
2022-07-30T23:05:54.966Z,1020.9
2022-07-30T23:11:26.349Z,1021.1
2022-07-30T23:17:11.933Z,1020.9
2022-07-30T23:22:53.885Z,1021.1
2022-07-30T23:28:31.950Z,1021.2
2022-07-30T23:34:10.359Z,1021.3
2022-07-30T23:39:41.446Z,1021.3
2022-07-30T23:44:57.771Z,1021.5
2022-07-30T23:50:45.308Z,1021.7
2022-07-30T23:56:14.565Z,1021.8
